sensor_id;sensor_type;location;lat;lon;timestamp;temperature;humidity
41922;DHT22;27609;51.002;5.354;2023-06-04T00:01:55;14.20;99.60
41922;DHT22;27609;51.002;5.354;2023-06-04T00:04:21;14.20;99.90
41922;DHT22;27609;51.002;5.354;2023-06-04T00:06:48;14.20;99.90
41922;DHT22;27609;51.002;5.354;2023-06-04T00:09:14;14.20;99.90
41922;DHT22;27609;51.002;5.354;2023-06-04T00:11:40;14.10;99.90
41922;DHT22;27609;51.002;5.354;2023-06-04T00:14:06;14.00;99.90
41922;DHT22;27609;51.002;5.354;2023-06-04T00:16:31;14.00;99.90
41922;DHT22;27609;51.002;5.354;2023-06-04T00:18:57;14.00;99.90
41922;DHT22;27609;51.002;5.354;2023-06-04T00:21:23;14.00;99.90
41922;DHT22;27609;51.002;5.354;2023-06-04T00:23:48;13.90;99.90
41922;DHT22;27609;51.002;5.354;2023-06-04T00:26:14;13.80;99.90
41922;DHT22;27609;51.002;5.354;2023-06-04T00:28:39;13.80;99.90
41922;DHT22;27609;51.002;5.354;2023-06-04T00:31:05;13.80;99.90
41922;DHT22;27609;51.002;5.354;2023-06-04T00:33:31;13.80;99.90
41922;DHT22;27609;51.002;5.354;2023-06-04T00:35:57;13.80;99.90
41922;DHT22;27609;51.002;5.354;2023-06-04T00:38:23;13.80;99.90
41922;DHT22;27609;51.002;5.354;2023-06-04T00:40:48;13.80;99.90
41922;DHT22;27609;51.002;5.354;2023-06-04T00:43:15;13.70;99.90
41922;DHT22;27609;51.002;5.354;2023-06-04T00:45:40;13.60;99.90
41922;DHT22;27609;51.002;5.354;2023-06-04T00:48:07;13.60;99.90
41922;DHT22;27609;51.002;5.354;2023-06-04T00:50:33;13.60;99.90
41922;DHT22;27609;51.002;5.354;2023-06-04T00:53:01;13.60;99.90
41922;DHT22;27609;51.002;5.354;2023-06-04T00:55:26;13.60;99.90
41922;DHT22;27609;51.002;5.354;2023-06-04T00:57:52;13.60;99.90
41922;DHT22;27609;51.002;5.354;2023-06-04T01:00:18;13.60;99.90
41922;DHT22;27609;51.002;5.354;2023-06-04T01:02:47;13.50;99.90
41922;DHT22;27609;51.002;5.354;2023-06-04T01:05:32;13.50;99.90
41922;DHT22;27609;51.002;5.354;2023-06-04T01:08:02;13.50;99.90
41922;DHT22;27609;51.002;5.354;2023-06-04T01:10:28;13.50;99.90
41922;DHT22;27609;51.002;5.354;2023-06-04T01:12:54;13.50;99.90
41922;DHT22;27609;51.002;5.354;2023-06-04T01:15:19;13.60;99.90
41922;DHT22;27609;51.002;5.354;2023-06-04T01:17:49;13.60;99.90
41922;DHT22;27609;51.002;5.354;2023-06-04T01:20:38;13.50;99.90
41922;DHT22;27609;51.002;5.354;2023-06-04T01:26:00;13.50;99.90
41922;DHT22;27609;51.002;5.354;2023-06-04T01:28:28;13.60;99.90
41922;DHT22;27609;51.002;5.354;2023-06-04T01:30:55;13.50;99.90
41922;DHT22;27609;51.002;5.354;2023-06-04T01:33:22;13.40;99.90
41922;DHT22;27609;51.002;5.354;2023-06-04T01:35:49;13.40;99.90
41922;DHT22;27609;51.002;5.354;2023-06-04T01:38:15;13.40;99.90
41922;DHT22;27609;51.002;5.354;2023-06-04T01:40:41;13.40;99.90
41922;DHT22;27609;51.002;5.354;2023-06-04T01:43:07;13.40;99.90
41922;DHT22;27609;51.002;5.354;2023-06-04T01:45:33;13.50;99.90
41922;DHT22;27609;51.002;5.354;2023-06-04T01:48:02;13.40;99.90
41922;DHT22;27609;51.002;5.354;2023-06-04T01:50:28;13.40;99.90
41922;DHT22;27609;51.002;5.354;2023-06-04T01:52:54;13.30;99.90
41922;DHT22;27609;51.002;5.354;2023-06-04T01:55:20;13.30;99.90
41922;DHT22;27609;51.002;5.354;2023-06-04T01:57:46;13.30;99.90
41922;DHT22;27609;51.002;5.354;2023-06-04T02:00:19;13.20;99.90
41922;DHT22;27609;51.002;5.354;2023-06-04T02:02:45;13.10;99.90
41922;DHT22;27609;51.002;5.354;2023-06-04T02:05:14;13.10;99.90
41922;DHT22;27609;51.002;5.354;2023-06-04T02:07:41;13.10;99.90
41922;DHT22;27609;51.002;5.354;2023-06-04T02:10:15;13.00;99.90
41922;DHT22;27609;51.002;5.354;2023-06-04T02:12:54;12.90;99.90
41922;DHT22;27609;51.002;5.354;2023-06-04T02:15:20;13.00;99.90
41922;DHT22;27609;51.002;5.354;2023-06-04T02:17:46;12.90;99.90
41922;DHT22;27609;51.002;5.354;2023-06-04T02:20:13;12.90;99.90
41922;DHT22;27609;51.002;5.354;2023-06-04T02:22:38;12.90;99.90
41922;DHT22;27609;51.002;5.354;2023-06-04T02:25:05;12.90;99.90
41922;DHT22;27609;51.002;5.354;2023-06-04T02:27:31;12.70;99.90
41922;DHT22;27609;51.002;5.354;2023-06-04T02:29:56;12.70;99.90
41922;DHT22;27609;51.002;5.354;2023-06-04T02:32:22;12.70;99.90
41922;DHT22;27609;51.002;5.354;2023-06-04T02:34:48;12.60;99.90
41922;DHT22;27609;51.002;5.354;2023-06-04T02:37:14;12.60;99.90
41922;DHT22;27609;51.002;5.354;2023-06-04T02:39:40;12.50;99.90
41922;DHT22;27609;51.002;5.354;2023-06-04T02:42:06;12.50;99.90
41922;DHT22;27609;51.002;5.354;2023-06-04T02:44:32;12.60;99.90
41922;DHT22;27609;51.002;5.354;2023-06-04T02:46:58;12.60;99.90
41922;DHT22;27609;51.002;5.354;2023-06-04T02:49:23;12.60;99.90
41922;DHT22;27609;51.002;5.354;2023-06-04T02:51:49;12.50;99.90
41922;DHT22;27609;51.002;5.354;2023-06-04T02:54:15;12.60;99.90
41922;DHT22;27609;51.002;5.354;2023-06-04T02:56:42;12.60;99.90
41922;DHT22;27609;51.002;5.354;2023-06-04T02:59:08;12.50;99.90
41922;DHT22;27609;51.002;5.354;2023-06-04T03:01:34;12.30;99.90
41922;DHT22;27609;51.002;5.354;2023-06-04T03:04:00;12.30;99.90
41922;DHT22;27609;51.002;5.354;2023-06-04T03:06:30;12.20;99.90
41922;DHT22;27609;51.002;5.354;2023-06-04T03:08:58;12.10;99.90
41922;DHT22;27609;51.002;5.354;2023-06-04T03:11:24;12.10;99.90
41922;DHT22;27609;51.002;5.354;2023-06-04T03:13:50;12.20;99.90
41922;DHT22;27609;51.002;5.354;2023-06-04T03:16:17;12.10;99.90
41922;DHT22;27609;51.002;5.354;2023-06-04T03:18:43;12.10;99.90
41922;DHT22;27609;51.002;5.354;2023-06-04T03:21:09;12.10;99.90
41922;DHT22;27609;51.002;5.354;2023-06-04T03:23:37;12.00;99.90
41922;DHT22;27609;51.002;5.354;2023-06-04T03:26:03;12.00;99.90
41922;DHT22;27609;51.002;5.354;2023-06-04T03:28:30;11.90;99.90
41922;DHT22;27609;51.002;5.354;2023-06-04T03:30:56;12.00;99.90
41922;DHT22;27609;51.002;5.354;2023-06-04T03:33:21;12.10;99.90
41922;DHT22;27609;51.002;5.354;2023-06-04T03:35:47;11.90;99.90
41922;DHT22;27609;51.002;5.354;2023-06-04T03:38:14;11.80;99.90
41922;DHT22;27609;51.002;5.354;2023-06-04T03:40:40;11.90;99.90
41922;DHT22;27609;51.002;5.354;2023-06-04T03:43:05;12.00;99.90
41922;DHT22;27609;51.002;5.354;2023-06-04T03:45:31;11.90;99.90
41922;DHT22;27609;51.002;5.354;2023-06-04T03:47:57;11.80;99.90
41922;DHT22;27609;51.002;5.354;2023-06-04T03:50:22;11.90;99.90
41922;DHT22;27609;51.002;5.354;2023-06-04T03:52:49;12.00;99.90
41922;DHT22;27609;51.002;5.354;2023-06-04T03:55:15;12.00;99.90
41922;DHT22;27609;51.002;5.354;2023-06-04T03:57:40;12.00;99.90
41922;DHT22;27609;51.002;5.354;2023-06-04T04:00:08;11.90;99.90
41922;DHT22;27609;51.002;5.354;2023-06-04T04:02:37;11.90;99.90
41922;DHT22;27609;51.002;5.354;2023-06-04T04:05:03;12.00;99.90
41922;DHT22;27609;51.002;5.354;2023-06-04T04:07:29;11.90;99.90
41922;DHT22;27609;51.002;5.354;2023-06-04T04:09:54;11.80;99.90
41922;DHT22;27609;51.002;5.354;2023-06-04T04:12:20;11.70;99.90
41922;DHT22;27609;51.002;5.354;2023-06-04T04:14:46;11.60;99.90
41922;DHT22;27609;51.002;5.354;2023-06-04T04:17:16;11.60;99.90
41922;DHT22;27609;51.002;5.354;2023-06-04T04:19:41;11.70;99.90
41922;DHT22;27609;51.002;5.354;2023-06-04T04:22:07;11.80;99.90
41922;DHT22;27609;51.002;5.354;2023-06-04T04:24:34;11.90;99.90
41922;DHT22;27609;51.002;5.354;2023-06-04T04:27:02;12.00;99.90
41922;DHT22;27609;51.002;5.354;2023-06-04T04:29:29;11.90;99.90
41922;DHT22;27609;51.002;5.354;2023-06-04T04:31:58;11.80;99.90
41922;DHT22;27609;51.002;5.354;2023-06-04T04:34:27;11.70;99.90
41922;DHT22;27609;51.002;5.354;2023-06-04T04:36:54;11.70;99.90
41922;DHT22;27609;51.002;5.354;2023-06-04T04:39:22;11.70;99.90
41922;DHT22;27609;51.002;5.354;2023-06-04T04:41:48;11.80;99.90
41922;DHT22;27609;51.002;5.354;2023-06-04T04:44:14;12.00;99.90
41922;DHT22;27609;51.002;5.354;2023-06-04T04:46:40;12.10;99.90
41922;DHT22;27609;51.002;5.354;2023-06-04T04:49:05;12.10;99.90
41922;DHT22;27609;51.002;5.354;2023-06-04T04:51:31;12.20;99.90
41922;DHT22;27609;51.002;5.354;2023-06-04T04:53:58;12.20;99.90
41922;DHT22;27609;51.002;5.354;2023-06-04T04:56:26;12.20;99.90
41922;DHT22;27609;51.002;5.354;2023-06-04T04:58:52;12.10;99.90
41922;DHT22;27609;51.002;5.354;2023-06-04T05:01:18;12.10;99.90
41922;DHT22;27609;51.002;5.354;2023-06-04T05:03:43;12.30;99.90
41922;DHT22;27609;51.002;5.354;2023-06-04T05:06:09;12.50;99.90
41922;DHT22;27609;51.002;5.354;2023-06-04T05:08:35;12.70;99.90
41922;DHT22;27609;51.002;5.354;2023-06-04T05:11:01;12.70;99.90
41922;DHT22;27609;51.002;5.354;2023-06-04T05:13:27;12.80;99.90
41922;DHT22;27609;51.002;5.354;2023-06-04T05:15:52;12.80;99.90
41922;DHT22;27609;51.002;5.354;2023-06-04T05:18:18;12.80;99.90
41922;DHT22;27609;51.002;5.354;2023-06-04T05:20:55;12.90;99.90
41922;DHT22;27609;51.002;5.354;2023-06-04T05:23:21;13.00;99.90
41922;DHT22;27609;51.002;5.354;2023-06-04T05:25:46;13.10;99.90
41922;DHT22;27609;51.002;5.354;2023-06-04T05:28:14;13.10;99.90
41922;DHT22;27609;51.002;5.354;2023-06-04T05:30:40;13.10;99.90
41922;DHT22;27609;51.002;5.354;2023-06-04T05:33:07;13.10;99.90
41922;DHT22;27609;51.002;5.354;2023-06-04T05:35:47;13.20;99.90
41922;DHT22;27609;51.002;5.354;2023-06-04T05:38:13;13.30;99.90
41922;DHT22;27609;51.002;5.354;2023-06-04T05:40:44;13.20;99.90
41922;DHT22;27609;51.002;5.354;2023-06-04T05:43:10;13.40;99.90
41922;DHT22;27609;51.002;5.354;2023-06-04T05:45:35;13.60;99.90
41922;DHT22;27609;51.002;5.354;2023-06-04T05:48:01;13.60;99.90
41922;DHT22;27609;51.002;5.354;2023-06-04T05:50:28;13.80;99.90
41922;DHT22;27609;51.002;5.354;2023-06-04T05:52:53;14.20;99.90
41922;DHT22;27609;51.002;5.354;2023-06-04T05:55:19;14.40;99.90
41922;DHT22;27609;51.002;5.354;2023-06-04T05:57:45;14.50;99.90
41922;DHT22;27609;51.002;5.354;2023-06-04T06:00:11;14.60;99.90
41922;DHT22;27609;51.002;5.354;2023-06-04T06:02:37;14.80;99.90
41922;DHT22;27609;51.002;5.354;2023-06-04T06:05:05;15.10;99.90
41922;DHT22;27609;51.002;5.354;2023-06-04T06:07:34;15.20;99.90
41922;DHT22;27609;51.002;5.354;2023-06-04T06:10:00;15.30;99.90
41922;DHT22;27609;51.002;5.354;2023-06-04T06:12:27;15.30;99.90
41922;DHT22;27609;51.002;5.354;2023-06-04T06:14:52;15.50;99.90
41922;DHT22;27609;51.002;5.354;2023-06-04T06:17:18;16.60;99.90
41922;DHT22;27609;51.002;5.354;2023-06-04T06:19:44;17.20;99.90
41922;DHT22;27609;51.002;5.354;2023-06-04T06:22:10;18.10;99.90
41922;DHT22;27609;51.002;5.354;2023-06-04T06:24:35;18.70;99.90
41922;DHT22;27609;51.002;5.354;2023-06-04T06:27:01;18.80;99.90
41922;DHT22;27609;51.002;5.354;2023-06-04T06:29:27;19.60;99.90
41922;DHT22;27609;51.002;5.354;2023-06-04T06:31:52;19.90;99.90
41922;DHT22;27609;51.002;5.354;2023-06-04T06:34:18;20.90;98.90
41922;DHT22;27609;51.002;5.354;2023-06-04T06:36:44;21.00;97.90
41922;DHT22;27609;51.002;5.354;2023-06-04T06:39:10;21.30;97.40
41922;DHT22;27609;51.002;5.354;2023-06-04T06:41:36;20.90;97.10
41922;DHT22;27609;51.002;5.354;2023-06-04T06:44:04;19.80;98.10
41922;DHT22;27609;51.002;5.354;2023-06-04T06:46:30;19.70;98.90
41922;DHT22;27609;51.002;5.354;2023-06-04T06:48:55;20.80;98.00
41922;DHT22;27609;51.002;5.354;2023-06-04T06:51:22;22.20;95.70
41922;DHT22;27609;51.002;5.354;2023-06-04T06:53:49;22.10;95.10
41922;DHT22;27609;51.002;5.354;2023-06-04T06:56:15;22.10;94.70
41922;DHT22;27609;51.002;5.354;2023-06-04T06:58:41;23.00;93.80
41922;DHT22;27609;51.002;5.354;2023-06-04T07:01:06;23.20;94.00
41922;DHT22;27609;51.002;5.354;2023-06-04T07:03:32;23.00;92.40
41922;DHT22;27609;51.002;5.354;2023-06-04T07:05:58;23.90;91.90
41922;DHT22;27609;51.002;5.354;2023-06-04T07:08:23;24.00;90.70
41922;DHT22;27609;51.002;5.354;2023-06-04T07:10:49;23.60;91.90
41922;DHT22;27609;51.002;5.354;2023-06-04T07:13:15;24.30;91.10
41922;DHT22;27609;51.002;5.354;2023-06-04T07:15:41;24.80;90.30
41922;DHT22;27609;51.002;5.354;2023-06-04T07:18:07;25.40;87.20
41922;DHT22;27609;51.002;5.354;2023-06-04T07:20:33;26.70;83.80
41922;DHT22;27609;51.002;5.354;2023-06-04T07:22:58;26.10;82.60
41922;DHT22;27609;51.002;5.354;2023-06-04T07:25:24;26.40;82.90
41922;DHT22;27609;51.002;5.354;2023-06-04T07:27:51;26.00;82.30
41922;DHT22;27609;51.002;5.354;2023-06-04T07:30:16;26.50;82.40
41922;DHT22;27609;51.002;5.354;2023-06-04T07:32:47;26.50;80.40
41922;DHT22;27609;51.002;5.354;2023-06-04T07:35:13;24.90;84.60
41922;DHT22;27609;51.002;5.354;2023-06-04T07:37:39;25.70;82.90
41922;DHT22;27609;51.002;5.354;2023-06-04T07:40:05;25.80;80.90
41922;DHT22;27609;51.002;5.354;2023-06-04T07:42:30;25.20;81.50
41922;DHT22;27609;51.002;5.354;2023-06-04T07:44:56;25.30;82.60
41922;DHT22;27609;51.002;5.354;2023-06-04T07:47:22;25.50;80.90
41922;DHT22;27609;51.002;5.354;2023-06-04T07:49:47;24.80;82.80
41922;DHT22;27609;51.002;5.354;2023-06-04T07:52:13;25.40;80.80
41922;DHT22;27609;51.002;5.354;2023-06-04T07:54:39;25.70;80.20
41922;DHT22;27609;51.002;5.354;2023-06-04T07:57:07;27.10;79.70
41922;DHT22;27609;51.002;5.354;2023-06-04T07:59:32;27.50;76.00
41922;DHT22;27609;51.002;5.354;2023-06-04T08:01:58;28.90;75.50
41922;DHT22;27609;51.002;5.354;2023-06-04T08:04:24;28.60;74.60
41922;DHT22;27609;51.002;5.354;2023-06-04T08:06:49;27.30;74.10
41922;DHT22;27609;51.002;5.354;2023-06-04T08:09:15;26.50;76.80
41922;DHT22;27609;51.002;5.354;2023-06-04T08:11:41;28.50;73.00
41922;DHT22;27609;51.002;5.354;2023-06-04T08:14:11;29.50;70.70
41922;DHT22;27609;51.002;5.354;2023-06-04T08:16:38;28.10;71.70
41922;DHT22;27609;51.002;5.354;2023-06-04T08:19:04;29.00;70.00
41922;DHT22;27609;51.002;5.354;2023-06-04T08:21:30;29.70;68.70
41922;DHT22;27609;51.002;5.354;2023-06-04T08:23:55;30.60;66.20
41922;DHT22;27609;51.002;5.354;2023-06-04T08:26:22;30.50;66.00
41922;DHT22;27609;51.002;5.354;2023-06-04T08:28:49;30.80;64.60
41922;DHT22;27609;51.002;5.354;2023-06-04T08:31:15;30.70;65.10
41922;DHT22;27609;51.002;5.354;2023-06-04T08:33:42;29.20;65.40
41922;DHT22;27609;51.002;5.354;2023-06-04T08:36:08;28.80;66.50
41922;DHT22;27609;51.002;5.354;2023-06-04T08:38:33;29.80;65.70
41922;DHT22;27609;51.002;5.354;2023-06-04T08:41:12;31.40;63.10
41922;DHT22;27609;51.002;5.354;2023-06-04T08:43:39;32.90;62.70
41922;DHT22;27609;51.002;5.354;2023-06-04T08:46:05;34.20;58.80
41922;DHT22;27609;51.002;5.354;2023-06-04T08:48:35;34.10;58.40
41922;DHT22;27609;51.002;5.354;2023-06-04T08:51:02;33.70;58.20
41922;DHT22;27609;51.002;5.354;2023-06-04T08:53:31;34.00;56.70
41922;DHT22;27609;51.002;5.354;2023-06-04T08:55:57;32.60;57.50
41922;DHT22;27609;51.002;5.354;2023-06-04T08:58:23;34.00;57.30
41922;DHT22;27609;51.002;5.354;2023-06-04T09:00:50;33.70;57.60
41922;DHT22;27609;51.002;5.354;2023-06-04T09:03:16;33.70;55.70
41922;DHT22;27609;51.002;5.354;2023-06-04T09:05:44;33.40;55.50
41922;DHT22;27609;51.002;5.354;2023-06-04T09:08:14;33.20;55.80
41922;DHT22;27609;51.002;5.354;2023-06-04T09:10:41;33.20;55.50
41922;DHT22;27609;51.002;5.354;2023-06-04T09:13:10;34.00;55.40
41922;DHT22;27609;51.002;5.354;2023-06-04T09:15:36;34.30;54.50
41922;DHT22;27609;51.002;5.354;2023-06-04T09:18:02;34.20;53.50
41922;DHT22;27609;51.002;5.354;2023-06-04T09:20:28;35.00;54.30
41922;DHT22;27609;51.002;5.354;2023-06-04T09:22:54;33.90;53.10
41922;DHT22;27609;51.002;5.354;2023-06-04T09:25:27;33.40;54.10
41922;DHT22;27609;51.002;5.354;2023-06-04T09:27:54;34.90;53.70
41922;DHT22;27609;51.002;5.354;2023-06-04T09:30:23;32.30;53.40
41922;DHT22;27609;51.002;5.354;2023-06-04T09:32:49;32.10;54.10
41922;DHT22;27609;51.002;5.354;2023-06-04T09:35:17;33.90;53.80
41922;DHT22;27609;51.002;5.354;2023-06-04T09:37:52;34.30;51.40
41922;DHT22;27609;51.002;5.354;2023-06-04T09:40:18;35.10;51.30
41922;DHT22;27609;51.002;5.354;2023-06-04T09:42:45;33.20;50.80
41922;DHT22;27609;51.002;5.354;2023-06-04T09:45:11;32.80;54.30
41922;DHT22;27609;51.002;5.354;2023-06-04T09:47:44;33.20;51.50
41922;DHT22;27609;51.002;5.354;2023-06-04T09:50:13;33.40;51.70
41922;DHT22;27609;51.002;5.354;2023-06-04T09:52:38;33.30;51.30
41922;DHT22;27609;51.002;5.354;2023-06-04T09:55:25;33.20;51.90
41922;DHT22;27609;51.002;5.354;2023-06-04T09:57:52;34.20;51.10
41922;DHT22;27609;51.002;5.354;2023-06-04T10:00:19;34.70;50.90
41922;DHT22;27609;51.002;5.354;2023-06-04T10:02:47;34.30;50.20
41922;DHT22;27609;51.002;5.354;2023-06-04T10:05:13;30.40;53.20
41922;DHT22;27609;51.002;5.354;2023-06-04T10:07:45;31.20;53.30
41922;DHT22;27609;51.002;5.354;2023-06-04T10:10:15;33.00;53.40
41922;DHT22;27609;51.002;5.354;2023-06-04T10:12:42;35.80;51.00
41922;DHT22;27609;51.002;5.354;2023-06-04T10:15:12;36.10;49.30
41922;DHT22;27609;51.002;5.354;2023-06-04T10:17:39;36.70;49.70
41922;DHT22;27609;51.002;5.354;2023-06-04T10:20:09;36.90;48.20
41922;DHT22;27609;51.002;5.354;2023-06-04T10:22:36;35.20;49.90
41922;DHT22;27609;51.002;5.354;2023-06-04T10:25:01;32.90;51.80
41922;DHT22;27609;51.002;5.354;2023-06-04T10:27:33;32.50;51.40
41922;DHT22;27609;51.002;5.354;2023-06-04T10:30:02;32.90;50.50
41922;DHT22;27609;51.002;5.354;2023-06-04T10:32:29;33.70;50.20
41922;DHT22;27609;51.002;5.354;2023-06-04T10:34:55;34.20;49.70
41922;DHT22;27609;51.002;5.354;2023-06-04T10:37:24;34.60;51.50
41922;DHT22;27609;51.002;5.354;2023-06-04T10:39:59;36.20;47.80
41922;DHT22;27609;51.002;5.354;2023-06-04T10:42:25;37.90;47.80
41922;DHT22;27609;51.002;5.354;2023-06-04T10:44:54;38.80;47.90
41922;DHT22;27609;51.002;5.354;2023-06-04T10:47:27;35.70;46.40
41922;DHT22;27609;51.002;5.354;2023-06-04T10:50:07;35.10;48.00
41922;DHT22;27609;51.002;5.354;2023-06-04T10:52:33;35.00;47.10
41922;DHT22;27609;51.002;5.354;2023-06-04T10:55:06;35.00;47.50
41922;DHT22;27609;51.002;5.354;2023-06-04T10:57:32;35.10;47.40
41922;DHT22;27609;51.002;5.354;2023-06-04T10:59:59;35.70;46.90
41922;DHT22;27609;51.002;5.354;2023-06-04T11:02:26;36.80;46.60
41922;DHT22;27609;51.002;5.354;2023-06-04T11:05:07;38.60;45.60
41922;DHT22;27609;51.002;5.354;2023-06-04T11:07:49;36.90;47.10
41922;DHT22;27609;51.002;5.354;2023-06-04T11:10:16;34.40;47.20
41922;DHT22;27609;51.002;5.354;2023-06-04T11:12:46;32.30;48.90
41922;DHT22;27609;51.002;5.354;2023-06-04T11:15:16;33.10;49.60
41922;DHT22;27609;51.002;5.354;2023-06-04T11:17:55;33.70;47.30
41922;DHT22;27609;51.002;5.354;2023-06-04T11:20:24;35.60;46.80
41922;DHT22;27609;51.002;5.354;2023-06-04T11:22:55;36.40;45.90
41922;DHT22;27609;51.002;5.354;2023-06-04T11:25:23;35.20;49.70
41922;DHT22;27609;51.002;5.354;2023-06-04T11:27:52;37.00;48.30
41922;DHT22;27609;51.002;5.354;2023-06-04T11:30:18;38.90;46.00
41922;DHT22;27609;51.002;5.354;2023-06-04T11:32:45;39.90;44.70
41922;DHT22;27609;51.002;5.354;2023-06-04T11:35:10;36.60;45.30
41922;DHT22;27609;51.002;5.354;2023-06-04T11:37:37;36.00;45.80
41922;DHT22;27609;51.002;5.354;2023-06-04T11:40:03;38.00;46.10
41922;DHT22;27609;51.002;5.354;2023-06-04T11:42:32;37.20;45.00
41922;DHT22;27609;51.002;5.354;2023-06-04T11:44:57;36.90;44.50
41922;DHT22;27609;51.002;5.354;2023-06-04T11:47:24;32.70;47.00
41922;DHT22;27609;51.002;5.354;2023-06-04T11:49:56;34.00;46.40
41922;DHT22;27609;51.002;5.354;2023-06-04T11:52:22;34.40;45.20
41922;DHT22;27609;51.002;5.354;2023-06-04T11:54:48;33.70;44.90
41922;DHT22;27609;51.002;5.354;2023-06-04T11:57:14;34.80;44.50
41922;DHT22;27609;51.002;5.354;2023-06-04T11:59:40;36.70;44.60
41922;DHT22;27609;51.002;5.354;2023-06-04T12:02:07;35.80;44.40
41922;DHT22;27609;51.002;5.354;2023-06-04T12:04:33;36.40;43.90
41922;DHT22;27609;51.002;5.354;2023-06-04T12:07:01;35.70;46.30
41922;DHT22;27609;51.002;5.354;2023-06-04T12:09:32;37.20;44.00
41922;DHT22;27609;51.002;5.354;2023-06-04T12:12:05;34.90;44.90
41922;DHT22;27609;51.002;5.354;2023-06-04T12:14:32;36.00;44.90
41922;DHT22;27609;51.002;5.354;2023-06-04T12:17:08;36.40;44.60
41922;DHT22;27609;51.002;5.354;2023-06-04T12:19:48;37.30;44.30
41922;DHT22;27609;51.002;5.354;2023-06-04T12:22:14;38.10;43.50
41922;DHT22;27609;51.002;5.354;2023-06-04T12:24:48;37.90;41.70
41922;DHT22;27609;51.002;5.354;2023-06-04T12:27:14;36.00;43.30
41922;DHT22;27609;51.002;5.354;2023-06-04T12:29:40;35.10;43.60
41922;DHT22;27609;51.002;5.354;2023-06-04T12:32:10;34.80;44.10
41922;DHT22;27609;51.002;5.354;2023-06-04T12:34:39;36.10;44.90
41922;DHT22;27609;51.002;5.354;2023-06-04T12:37:06;37.90;43.00
41922;DHT22;27609;51.002;5.354;2023-06-04T12:39:33;37.60;43.20
41922;DHT22;27609;51.002;5.354;2023-06-04T12:41:59;35.90;46.30
41922;DHT22;27609;51.002;5.354;2023-06-04T12:44:25;34.50;43.60
41922;DHT22;27609;51.002;5.354;2023-06-04T12:46:50;31.80;44.40
41922;DHT22;27609;51.002;5.354;2023-06-04T12:49:16;31.80;46.50
41922;DHT22;27609;51.002;5.354;2023-06-04T12:51:42;31.70;45.30
41922;DHT22;27609;51.002;5.354;2023-06-04T12:54:08;32.20;46.40
41922;DHT22;27609;51.002;5.354;2023-06-04T12:56:34;33.90;46.70
41922;DHT22;27609;51.002;5.354;2023-06-04T12:59:00;35.40;44.50
41922;DHT22;27609;51.002;5.354;2023-06-04T13:01:26;36.20;44.20
41922;DHT22;27609;51.002;5.354;2023-06-04T13:03:52;36.60;43.00
41922;DHT22;27609;51.002;5.354;2023-06-04T13:06:17;37.90;43.00
41922;DHT22;27609;51.002;5.354;2023-06-04T13:08:43;36.10;44.00
41922;DHT22;27609;51.002;5.354;2023-06-04T13:11:09;36.60;43.60
41922;DHT22;27609;51.002;5.354;2023-06-04T13:13:36;35.50;45.00
41922;DHT22;27609;51.002;5.354;2023-06-04T13:16:04;35.00;44.30
41922;DHT22;27609;51.002;5.354;2023-06-04T13:18:30;35.10;44.10
41922;DHT22;27609;51.002;5.354;2023-06-04T13:20:56;34.80;45.30
41922;DHT22;27609;51.002;5.354;2023-06-04T13:23:22;35.40;45.30
41922;DHT22;27609;51.002;5.354;2023-06-04T13:25:48;35.10;44.20
41922;DHT22;27609;51.002;5.354;2023-06-04T13:28:14;34.10;45.40
41922;DHT22;27609;51.002;5.354;2023-06-04T13:30:41;34.20;44.40
41922;DHT22;27609;51.002;5.354;2023-06-04T13:33:07;34.30;45.50
41922;DHT22;27609;51.002;5.354;2023-06-04T13:35:33;34.10;45.00
41922;DHT22;27609;51.002;5.354;2023-06-04T13:37:58;33.90;46.10
41922;DHT22;27609;51.002;5.354;2023-06-04T13:40:24;34.00;45.00
41922;DHT22;27609;51.002;5.354;2023-06-04T13:42:50;33.30;44.80
41922;DHT22;27609;51.002;5.354;2023-06-04T13:45:16;34.10;44.50
41922;DHT22;27609;51.002;5.354;2023-06-04T13:47:46;34.80;44.40
41922;DHT22;27609;51.002;5.354;2023-06-04T13:50:13;33.90;44.20
41922;DHT22;27609;51.002;5.354;2023-06-04T13:52:39;32.30;45.00
41922;DHT22;27609;51.002;5.354;2023-06-04T13:55:05;32.80;46.00
41922;DHT22;27609;51.002;5.354;2023-06-04T13:57:31;32.70;44.60
41922;DHT22;27609;51.002;5.354;2023-06-04T13:59:57;32.00;45.70
41922;DHT22;27609;51.002;5.354;2023-06-04T14:02:23;30.90;46.10
41922;DHT22;27609;51.002;5.354;2023-06-04T14:04:50;29.50;46.50
41922;DHT22;27609;51.002;5.354;2023-06-04T14:07:16;29.40;47.00
41922;DHT22;27609;51.002;5.354;2023-06-04T14:09:42;29.70;48.90
41922;DHT22;27609;51.002;5.354;2023-06-04T14:12:08;30.60;49.00
41922;DHT22;27609;51.002;5.354;2023-06-04T14:14:34;31.10;46.50
41922;DHT22;27609;51.002;5.354;2023-06-04T14:17:03;31.70;46.60
41922;DHT22;27609;51.002;5.354;2023-06-04T14:19:29;31.70;44.80
41922;DHT22;27609;51.002;5.354;2023-06-04T14:21:55;31.00;45.90
41922;DHT22;27609;51.002;5.354;2023-06-04T14:24:21;30.80;45.20
41922;DHT22;27609;51.002;5.354;2023-06-04T14:26:47;31.20;45.70
41922;DHT22;27609;51.002;5.354;2023-06-04T14:29:13;30.90;47.30
41922;DHT22;27609;51.002;5.354;2023-06-04T14:31:39;30.80;47.90
41922;DHT22;27609;51.002;5.354;2023-06-04T14:34:05;30.70;46.10
41922;DHT22;27609;51.002;5.354;2023-06-04T14:36:32;29.90;46.60
41922;DHT22;27609;51.002;5.354;2023-06-04T14:38:58;29.90;46.70
41922;DHT22;27609;51.002;5.354;2023-06-04T14:41:24;30.20;46.70
41922;DHT22;27609;51.002;5.354;2023-06-04T14:43:49;30.30;46.30
41922;DHT22;27609;51.002;5.354;2023-06-04T14:46:16;30.10;47.70
41922;DHT22;27609;51.002;5.354;2023-06-04T14:48:42;29.80;46.50
41922;DHT22;27609;51.002;5.354;2023-06-04T14:51:07;29.90;47.60
41922;DHT22;27609;51.002;5.354;2023-06-04T14:53:33;29.70;47.10
41922;DHT22;27609;51.002;5.354;2023-06-04T14:55:59;29.10;47.40
41922;DHT22;27609;51.002;5.354;2023-06-04T14:58:24;28.70;48.70
41922;DHT22;27609;51.002;5.354;2023-06-04T15:00:50;28.90;47.60
41922;DHT22;27609;51.002;5.354;2023-06-04T15:03:16;28.60;49.20
41922;DHT22;27609;51.002;5.354;2023-06-04T15:05:42;28.50;49.30
41922;DHT22;27609;51.002;5.354;2023-06-04T15:08:08;28.90;49.60
41922;DHT22;27609;51.002;5.354;2023-06-04T15:10:34;29.50;49.20
41922;DHT22;27609;51.002;5.354;2023-06-04T15:13:00;29.60;48.90
41922;DHT22;27609;51.002;5.354;2023-06-04T15:15:26;29.10;46.60
41922;DHT22;27609;51.002;5.354;2023-06-04T15:17:51;29.10;49.20
41922;DHT22;27609;51.002;5.354;2023-06-04T15:20:17;28.80;47.20
41922;DHT22;27609;51.002;5.354;2023-06-04T15:22:43;28.40;49.80
41922;DHT22;27609;51.002;5.354;2023-06-04T15:25:09;27.70;48.70
41922;DHT22;27609;51.002;5.354;2023-06-04T15:27:35;27.70;48.20
41922;DHT22;27609;51.002;5.354;2023-06-04T15:30:01;28.00;48.80
41922;DHT22;27609;51.002;5.354;2023-06-04T15:32:27;28.00;47.20